This is the latest recevied weather packets stored in our database for station/object AD7ZD. If no packets are shown the sender has not sent any weather packets the latest 10 day(s).
| Time | Temp. | Humidity | Pressure | Rain* | Wind** | Luminosity | Snow |
|---|---|---|---|---|---|---|---|
| 1777563303 | 12.22° C | 34% | 1016.6 hPa | 0 mm | - | 296 W/m² | - |
| 1777562999 | 12.22° C | 34% | 1016.7 hPa | 0 mm | - | 275 W/m² | - |
| 1777562694 | 12.22° C | 34% | 1016.7 hPa | 0 mm | - | 274 W/m² | - |
| 1777562389 | 11.67° C | 34% | 1016.8 hPa | 0 mm | - | 253 W/m² | - |
| 1777562085 | 11.67° C | 35% | 1016.6 hPa | 0 mm | - | 242 W/m² | - |
| 1777561782 | 11.11° C | 36% | 1016.7 hPa | 0 mm | - | 194 W/m² | - |
| 1777561478 | 11.11° C | 37% | 1016.7 hPa | 0 mm | - | 192 W/m² | - |
| 1777561173 | 10.56° C | 37% | 1016.7 hPa | 0 mm | - | 172 W/m² | - |
| 1777560868 | 10° C | 39% | 1016.6 hPa | 0 mm | - | 177 W/m² | - |
| 1777560566 | 9.44° C | 41% | 1016.8 hPa | 0 mm | - | 158 W/m² | - |
| 1777560263 | 8.33° C | 43% | 1016.8 hPa | 0 mm | - | 141 W/m² | - |
| 1777559961 | 8.33° C | 43% | 1016.6 hPa | 0 mm | - | 124 W/m² | - |
| 1777559655 | 7.78° C | 45% | 1016.4 hPa | 0 mm | - | 66 W/m² | - |
| 1777559354 | 7.22° C | 45% | 1016.7 hPa | 0 mm | - | 55 W/m² | - |
| 1777559050 | 7.22° C | 44% | 1016.8 hPa | 0 mm | - | 50 W/m² | - |
| 1777558744 | 6.67° C | 43% | 1016.7 hPa | 0 mm | - | 49 W/m² | - |
| 1777558441 | 6.11° C | 45% | 1016.4 hPa | 0 mm | - | 45 W/m² | - |
| 1777558137 | 6.11° C | 44% | 1016.4 hPa | 0 mm | - | 42 W/m² | - |
| 1777557834 | 6.67° C | 43% | 1016.4 hPa | 0 mm | - | 39 W/m² | - |
| 1777557530 | 6.11° C | 46% | 1016.6 hPa | 0 mm | - | 35 W/m² | - |
| 1777557227 | 4.44° C | 51% | 1016.3 hPa | 0 mm | - | 32 W/m² | - |
| 1777556923 | 3.89° C | 53% | 1016.2 hPa | 0 mm | - | 29 W/m² | - |
| 1777556618 | 3.33° C | 55% | 1016.3 hPa | 0 mm | - | 26 W/m² | - |
| 1777556313 | 2.78° C | 57% | 1016.4 hPa | 0 mm | - | 22 W/m² | - |
| 1777556009 | 2.22° C | 60% | 1016.1 hPa | 0 mm | - | 20 W/m² | - |
* Rain latest hour (hover to see other rain measurements)
** Current wind speed in m/s (hover to see current wind gust speed)